Time,TemperatureF,DewpointF,PressureIn,WindDirection,WindDirectionDegrees,WindSpeedMPH,WindSpeedGustMPH,Humidity,HourlyPrecipIn,Conditions,Clouds,dailyrainin,SoftwareType,DateUTC
2013-04-21 00:03:00,38.1,1.6,30.32,ENE,68,1.0,6.0,21,0.00,CLR,CLR,0.00,WeatherDisplay:10.37,2013-04-21 04:03:00,
2013-04-21 00:18:00,37.8,1.2,30.32,East,88,1.0,2.0,21,0.00,CLR,CLR,0.00,WeatherDisplay:10.37,2013-04-21 04:18:00,
2013-04-21 00:33:00,37.6,1.1,30.32,ENE,60,2.0,3.0,21,0.00,CLR,CLR,0.00,WeatherDisplay:10.37,2013-04-21 04:33:00,
2013-04-21 00:48:00,37.6,1.1,30.32,ENE,67,2.0,6.0,21,0.00,CLR,CLR,0.00,WeatherDisplay:10.37,2013-04-21 04:48:00,
2013-04-21 01:03:00,37.6,1.1,30.32,ENE,73,3.0,3.0,21,0.00,CLR,CLR,0.00,WeatherDisplay:10.37,2013-04-21 05:03:00,
2013-04-21 01:18:00,37.2,1.8,30.32,ENE,61,1.0,3.0,22,0.00,CLR,CLR,0.00,WeatherDisplay:10.37,2013-04-21 05:18:00,
2013-04-21 01:33:00,37.0,1.6,30.29,ENE,60,2.0,3.0,22,0.00,CLR,CLR,0.00,WeatherDisplay:10.37,2013-04-21 05:33:00,
2013-04-21 01:48:00,36.9,1.5,30.32,ENE,62,1.0,4.0,22,0.00,CLR,CLR,0.00,WeatherDisplay:10.37,2013-04-21 05:48:00,
2013-04-21 02:03:00,36.9,1.5,30.32,East,80,1.0,4.0,22,0.00,CLR,CLR,0.00,WeatherDisplay:10.37,2013-04-21 06:03:00,
2013-04-21 02:04:00,36.9,15.9,30.33,East,89,1.0,4.0,42,0.00,CLR,CLR,0.00,WeatherDisplay:10.37,2013-04-21 06:04:00,
2013-04-21 02:05:00,36.9,15.9,30.33,East,89,1.0,0.0,42,0.00,CLR,CLR,0.00,WeatherDisplay:10.37,2013-04-21 06:05:00,
2013-04-21 02:06:00,36.9,15.9,30.33,East,89,1.0,0.0,42,0.00,CLR,CLR,0.00,WeatherDisplay:10.37,2013-04-21 06:06:00,
2013-04-21 02:07:00,36.9,15.9,30.33,East,89,1.0,0.0,42,0.00,CLR,CLR,0.00,WeatherDisplay:10.37,2013-04-21 06:07:00,
2013-04-21 02:08:00,36.9,15.9,30.33,East,89,1.0,0.0,42,0.00,CLR,CLR,0.00,WeatherDisplay:10.37,2013-04-21 06:08:00,
2013-04-21 02:09:00,36.9,15.9,30.33,East,89,1.0,0.0,42,0.00,CLR,CLR,0.00,WeatherDisplay:10.37,2013-04-21 06:09:00,
2013-04-21 02:10:00,36.9,15.9,30.33,East,89,1.0,0.0,42,0.00,CLR,CLR,0.00,WeatherDisplay:10.37,2013-04-21 06:10:00,
2013-04-21 02:11:00,36.9,15.9,30.33,East,89,1.0,0.0,42,0.00,CLR,CLR,0.00,WeatherDisplay:10.37,2013-04-21 06:11:00,
2013-04-21 02:12:00,36.9,15.9,30.33,East,89,1.0,0.0,42,0.00,CLR,CLR,0.00,WeatherDisplay:10.37,2013-04-21 06:12:00,
2013-04-21 02:13:00,36.9,15.9,30.33,East,89,1.0,0.0,42,0.00,CLR,CLR,0.00,WeatherDisplay:10.37,2013-04-21 06:13:00,
2013-04-21 02:14:00,36.9,15.9,30.33,East,89,1.0,0.0,42,0.00,CLR,CLR,0.00,WeatherDisplay:10.37,2013-04-21 06:14:00,
2013-04-21 02:15:00,36.9,15.9,30.33,East,89,1.0,0.0,42,0.00,CLR,CLR,0.00,WeatherDisplay:10.37,2013-04-21 06:15:00,
2013-04-21 02:16:00,36.9,15.9,30.33,East,89,1.0,0.0,42,0.00,CLR,CLR,0.00,WeatherDisplay:10.37,2013-04-21 06:16:00,
2013-04-21 02:17:00,36.9,15.9,30.33,East,89,1.0,0.0,42,0.00,CLR,CLR,0.00,WeatherDisplay:10.37,2013-04-21 06:17:00,
2013-04-21 02:18:00,36.9,15.9,30.33,East,89,1.0,0.0,42,0.00,CLR,CLR,0.00,WeatherDisplay:10.37,2013-04-21 06:18:00,
2013-04-21 07:15:00,36.9,5.9,30.32,NE,45,6.0,6.0,27,0.00,CLR,,0.00,WeatherDisplay:10.37,2013-04-21 11:15:00,
2013-04-21 07:16:00,36.9,5.9,30.32,SW,225,2.3,2.3,27,0.00,CLR,,0.00,WeatherDisplay:10.37,2013-04-21 11:16:00,
2013-04-21 07:18:00,36.9,30.0,30.35,East,90,2.3,2.3,76,0.00,CLR,,0.00,WeatherDisplay:10.37,2013-04-21 11:18:00,
2013-04-21 07:23:00,37.0,30.2,30.35,East,90,2.9,2.9,76,0.00,CLR,,0.00,WeatherDisplay:10.37,2013-04-21 11:23:00,
2013-04-21 07:28:00,37.2,30.3,30.35,NE,45,3.5,3.5,76,0.00,CLR,,0.00,WeatherDisplay:10.37,2013-04-21 11:28:00,
2013-04-21 07:33:00,37.8,30.2,30.35,East,90,4.6,4.6,74,0.00,BKN,,0.00,WeatherDisplay:10.37,2013-04-21 11:33:00,
2013-04-21 07:38:00,38.1,30.6,30.35,NE,45,3.5,3.5,74,0.00,BKN,,0.00,WeatherDisplay:10.37,2013-04-21 11:38:00,
2013-04-21 07:43:00,38.3,30.7,30.35,ENE,68,5.8,5.8,74,0.00,BKN,,0.00,WeatherDisplay:10.37,2013-04-21 11:43:00,
2013-04-21 07:48:00,38.5,30.9,30.35,NE,45,3.5,3.5,74,0.00,BKN,,0.00,WeatherDisplay:10.37,2013-04-21 11:48:00,
2013-04-21 07:53:00,38.7,31.1,30.35,East,90,3.5,3.5,74,0.00,BKN,,0.00,WeatherDisplay:10.37,2013-04-21 11:53:00,
2013-04-21 07:58:00,38.8,31.3,30.35,NNE,22,4.9,4.9,74,0.00,BKN,,0.00,WeatherDisplay:10.37,2013-04-21 11:58:00,
2013-04-21 08:03:00,39.2,31.6,30.35,East,90,4.6,4.6,74,0.00,CLR,,0.00,WeatherDisplay:10.37,2013-04-21 12:03:00,
2013-04-21 08:08:00,39.4,31.8,30.35,NE,45,6.9,6.9,74,0.00,CLR,,0.00,WeatherDisplay:10.37,2013-04-21 12:08:00,
2013-04-21 08:13:00,39.7,32.1,30.35,East,90,8.1,8.1,74,0.00,CLR,,0.00,WeatherDisplay:10.37,2013-04-21 12:13:00,
2013-04-21 08:18:00,39.9,32.3,30.35,NNE,22,8.7,8.7,74,0.00,CLR,,0.00,WeatherDisplay:10.37,2013-04-21 12:18:00,
2013-04-21 08:23:00,40.1,32.5,30.35,ENE,68,5.8,5.8,74,0.00,CLR,,0.00,WeatherDisplay:10.37,2013-04-21 12:23:00,
2013-04-21 08:28:00,40.5,32.8,30.35,NE,45,4.6,4.6,74,0.00,CLR,,0.00,WeatherDisplay:10.37,2013-04-21 12:28:00,
2013-04-21 08:33:00,40.6,33.0,30.38,SE,135,2.4,2.4,74,0.00,CLR,,0.00,WeatherDisplay:10.37,2013-04-21 12:33:00,
2013-04-21 08:38:00,41.0,33.3,30.38,NE,45,6.2,6.2,74,0.00,CLR,,0.00,WeatherDisplay:10.37,2013-04-21 12:38:00,
2013-04-21 08:43:00,41.2,33.5,30.38,SE,135,3.6,3.6,74,0.00,CLR,,0.00,WeatherDisplay:10.37,2013-04-21 12:43:00,
2013-04-21 08:48:00,41.5,33.9,30.38,East,90,6.2,6.2,74,0.00,CLR,,0.00,WeatherDisplay:10.37,2013-04-21 12:48:00,
2013-04-21 08:53:00,41.9,29.8,30.38,East,90,5.8,5.8,62,0.00,CLR,,0.00,WeatherDisplay:10.37,2013-04-21 12:53:00,
2013-04-21 08:58:00,42.3,30.2,30.38,East,90,5.8,5.8,62,0.00,CLR,,0.00,WeatherDisplay:10.37,2013-04-21 12:58:00,
2013-04-21 09:03:00,43.0,30.0,30.38,East,90,4.6,4.6,60,0.00,CLR,,0.00,WeatherDisplay:10.37,2013-04-21 13:03:00,
2013-04-21 09:08:00,43.3,30.4,30.38,East,90,4.6,4.6,60,0.00,CLR,,0.00,WeatherDisplay:10.37,2013-04-21 13:08:00,
2013-04-21 09:13:00,43.7,30.7,30.38,NE,45,5.8,5.8,60,0.00,CLR,,0.00,WeatherDisplay:10.37,2013-04-21 13:13:00,
2013-04-21 09:18:00,44.2,31.2,30.38,East,90,6.9,6.9,60,0.00,CLR,,0.00,WeatherDisplay:10.37,2013-04-21 13:18:00,
2013-04-21 09:23:00,44.8,31.7,30.38,NE,45,6.0,6.0,60,0.00,CLR,,0.00,WeatherDisplay:10.37,2013-04-21 13:23:00,
2013-04-21 09:28:00,45.1,32.1,30.38,East,90,5.8,5.8,60,0.00,CLR,,0.00,WeatherDisplay:10.37,2013-04-21 13:28:00,
2013-04-21 09:33:00,45.5,32.4,30.38,East,90,5.8,5.8,60,0.00,CLR,,0.00,WeatherDisplay:10.37,2013-04-21 13:33:00,
2013-04-21 09:38:00,46.0,32.9,30.38,East,90,7.4,7.4,60,0.00,CLR,,0.00,WeatherDisplay:10.37,2013-04-21 13:38:00,
2013-04-21 09:43:00,46.2,33.1,30.38,SE,135,5.8,5.8,60,0.00,CLR,,0.00,WeatherDisplay:10.37,2013-04-21 13:43:00,
2013-04-21 09:48:00,46.6,32.1,30.38,East,90,5.8,5.8,57,0.00,CLR,,0.00,WeatherDisplay:10.37,2013-04-21 13:48:00,
2013-04-21 09:53:00,46.6,32.1,30.38,East,90,8.1,8.1,57,0.00,CLR,,0.00,WeatherDisplay:10.37,2013-04-21 13:53:00,
2013-04-21 09:58:00,47.1,32.7,30.38,East,90,6.9,6.9,57,0.00,CLR,,0.00,WeatherDisplay:10.37,2013-04-21 13:58:00,
2013-04-21 10:03:00,47.8,33.3,30.38,ENE,68,5.8,5.8,57,0.00,CLR,,0.00,WeatherDisplay:10.37,2013-04-21 14:03:00,
2013-04-21 10:08:00,48.2,33.7,30.38,East,90,3.5,3.5,57,0.00,CLR,,0.00,WeatherDisplay:10.37,2013-04-21 14:08:00,
2013-04-21 10:13:00,49.5,34.8,30.38,East,90,5.4,5.4,57,0.00,CLR,,0.00,WeatherDisplay:10.37,2013-04-21 14:13:00,
2013-04-21 10:18:00,49.6,35.0,30.38,SE,135,4.6,4.6,57,0.00,CLR,,0.00,WeatherDisplay:10.37,2013-04-21 14:18:00,
2013-04-21 10:23:00,50.2,35.5,30.38,NE,45,4.6,4.6,57,0.00,CLR,,0.00,WeatherDisplay:10.37,2013-04-21 14:23:00,
2013-04-21 10:28:00,50.5,35.9,30.38,East,90,6.9,6.9,57,0.00,CLR,,0.00,WeatherDisplay:10.37,2013-04-21 14:28:00,
2013-04-21 10:33:00,51.8,36.1,30.38,NE,45,3.5,3.5,55,0.00,CLR,,0.00,WeatherDisplay:10.37,2013-04-21 14:33:00,
2013-04-21 10:38:00,52.2,36.5,30.38,NNW,338,6.2,6.2,55,0.00,CLR,,0.00,WeatherDisplay:10.37,2013-04-21 14:38:00,
2013-04-21 10:43:00,52.7,37.0,30.38,East,90,5.8,5.8,55,0.00,CLR,,0.00,WeatherDisplay:10.37,2013-04-21 14:43:00,
2013-04-21 10:48:00,52.3,36.6,30.38,East,90,6.9,6.9,55,0.00,CLR,,0.00,WeatherDisplay:10.37,2013-04-21 14:48:00,
2013-04-21 10:53:00,52.5,36.8,30.38,East,90,5.8,5.8,55,0.00,CLR,,0.00,WeatherDisplay:10.37,2013-04-21 14:53:00,
2013-04-21 10:58:00,54.0,38.1,30.38,East,90,4.6,4.6,55,0.00,CLR,,0.00,WeatherDisplay:10.37,2013-04-21 14:58:00,
2013-04-21 11:03:00,54.0,38.1,30.38,East,90,8.1,8.1,55,0.00,CLR,,0.00,WeatherDisplay:10.37,2013-04-21 15:03:00,
2013-04-21 11:08:00,54.5,38.7,30.38,East,90,5.8,5.8,55,0.00,CLR,,0.00,WeatherDisplay:10.37,2013-04-21 15:08:00,
2013-04-21 11:13:00,55.0,39.2,30.38,NE,45,4.6,4.6,55,0.00,CLR,,0.00,WeatherDisplay:10.37,2013-04-21 15:13:00,
2013-04-21 11:18:00,54.7,38.8,30.38,East,90,6.0,6.0,55,0.00,CLR,,0.00,WeatherDisplay:10.37,2013-04-21 15:18:00,
2013-04-21 11:23:00,55.2,39.3,30.38,East,90,6.9,6.9,55,0.00,CLR,,0.00,WeatherDisplay:10.37,2013-04-21 15:23:00,
2013-04-21 11:28:00,55.9,38.6,30.38,SE,135,4.9,4.9,52,0.00,CLR,,0.00,WeatherDisplay:10.37,2013-04-21 15:28:00,
2013-04-21 11:33:00,55.2,39.3,30.38,NE,45,5.8,5.8,55,0.00,CLR,,0.00,WeatherDisplay:10.37,2013-04-21 15:33:00,
2013-04-21 11:38:00,57.0,39.6,30.38,East,90,3.5,3.5,52,0.00,CLR,,0.00,WeatherDisplay:10.37,2013-04-21 15:38:00,
2013-04-21 11:43:00,57.9,40.4,30.38,East,90,6.9,6.9,52,0.00,CLR,,0.00,WeatherDisplay:10.37,2013-04-21 15:43:00,
2013-04-21 11:48:00,58.6,41.1,30.38,East,90,4.9,4.9,52,0.00,CLR,,0.00,WeatherDisplay:10.37,2013-04-21 15:48:00,
2013-04-21 11:53:00,59.0,41.4,30.38,East,90,4.6,4.6,52,0.00,CLR,,0.00,WeatherDisplay:10.37,2013-04-21 15:53:00,
2013-04-21 11:58:00,59.2,41.6,30.38,East,90,4.9,4.9,52,0.00,CLR,,0.00,WeatherDisplay:10.37,2013-04-21 15:58:00,
2013-04-21 12:03:00,58.1,40.6,30.38,East,90,8.1,8.1,52,0.00,CLR,,0.00,WeatherDisplay:10.37,2013-04-21 16:03:00,
2013-04-21 12:08:00,59.4,41.7,30.38,NE,45,4.0,4.0,52,0.00,CLR,,0.00,WeatherDisplay:10.37,2013-04-21 16:08:00,
2013-04-21 12:13:00,59.0,41.4,30.38,ENE,68,5.8,5.8,52,0.00,CLR,,0.00,WeatherDisplay:10.37,2013-04-21 16:13:00,
2013-04-21 12:18:00,59.9,42.2,30.38,East,90,4.6,4.6,52,0.00,CLR,,0.00,WeatherDisplay:10.37,2013-04-21 16:18:00,
2013-04-21 12:23:00,59.9,42.2,30.38,NE,45,5.8,5.8,52,0.00,CLR,,0.00,WeatherDisplay:10.37,2013-04-21 16:23:00,
2013-04-21 12:28:00,60.1,42.4,30.38,East,90,6.9,6.9,52,0.00,CLR,,0.00,WeatherDisplay:10.37,2013-04-21 16:28:00,
2013-04-21 12:33:00,60.4,42.7,30.35,East,90,5.8,5.8,52,0.00,CLR,,0.00,WeatherDisplay:10.37,2013-04-21 16:33:00,
2013-04-21 12:38:00,61.9,43.0,30.35,East,90,2.3,2.3,50,0.00,CLR,,0.00,WeatherDisplay:10.37,2013-04-21 16:38:00,
2013-04-21 12:43:00,62.4,43.5,30.35,East,90,7.1,7.1,50,0.00,CLR,,0.00,WeatherDisplay:10.37,2013-04-21 16:43:00,
2013-04-21 12:48:00,60.6,42.9,30.35,East,90,8.1,8.1,52,0.00,CLR,,0.00,WeatherDisplay:10.37,2013-04-21 16:48:00,
2013-04-21 12:53:00,60.1,42.4,30.35,East,90,6.9,6.9,52,0.00,CLR,,0.00,WeatherDisplay:10.37,2013-04-21 16:53:00,
2013-04-21 12:58:00,61.5,42.7,30.35,NE,45,5.8,5.8,50,0.00,CLR,,0.00,WeatherDisplay:10.37,2013-04-21 16:58:00,
2013-04-21 13:03:00,60.8,42.0,30.35,NE,45,9.2,9.2,50,0.00,CLR,,0.00,WeatherDisplay:10.37,2013-04-21 17:03:00,
2013-04-21 13:08:00,61.5,42.7,30.35,East,90,4.6,4.6,50,0.00,CLR,,0.00,WeatherDisplay:10.37,2013-04-21 17:08:00,
2013-04-21 13:13:00,61.0,42.2,30.35,NE,45,5.8,5.8,50,0.00,CLR,,0.00,WeatherDisplay:10.37,2013-04-21 17:13:00,
2013-04-21 13:18:00,61.2,42.4,30.32,East,90,5.8,5.8,50,0.00,CLR,,0.00,WeatherDisplay:10.37,2013-04-21 17:18:00,
2013-04-21 13:23:00,61.3,42.5,30.32,ENE,68,4.6,4.6,50,0.00,CLR,,0.00,WeatherDisplay:10.37,2013-04-21 17:23:00,
2013-04-21 13:28:00,61.7,42.9,30.32,ENE,68,5.8,5.8,50,0.00,CLR,,0.00,WeatherDisplay:10.37,2013-04-21 17:28:00,
2013-04-21 13:33:00,62.2,43.4,30.32,East,90,6.9,6.9,50,0.00,CLR,,0.00,WeatherDisplay:10.37,2013-04-21 17:33:00,
2013-04-21 13:38:00,62.2,43.4,30.32,NE,45,5.4,5.4,50,0.00,CLR,,0.00,WeatherDisplay:10.37,2013-04-21 17:38:00,
2013-04-21 13:43:00,62.1,43.2,30.32,East,90,4.3,4.3,50,0.00,CLR,,0.00,WeatherDisplay:10.37,2013-04-21 17:43:00,
2013-04-21 13:48:00,62.1,43.2,30.32,East,90,3.6,3.6,50,0.00,CLR,,0.00,WeatherDisplay:10.37,2013-04-21 17:48:00,
2013-04-21 13:53:00,62.1,43.2,30.32,East,90,3.5,3.5,50,0.00,CLR,,0.00,WeatherDisplay:10.37,2013-04-21 17:53:00,
2013-04-21 13:58:00,62.1,43.2,30.32,East,90,3.5,3.5,50,0.00,CLR,,0.00,WeatherDisplay:10.37,2013-04-21 17:58:00,
2013-04-21 14:03:00,64.6,43.9,30.32,East,90,3.5,3.5,47,0.00,CLR,,0.00,WeatherDisplay:10.37,2013-04-21 18:03:00,
2013-04-21 14:08:00,64.0,45.0,30.32,East,90,5.8,5.8,50,0.00,CLR,,0.00,WeatherDisplay:10.37,2013-04-21 18:08:00,
2013-04-21 14:13:00,65.1,44.4,30.32,NE,45,6.0,6.0,47,0.00,CLR,,0.00,WeatherDisplay:10.37,2013-04-21 18:13:00,
2013-04-21 14:18:00,64.6,43.9,30.32,North,0,5.8,5.8,47,0.00,CLR,,0.00,WeatherDisplay:10.37,2013-04-21 18:18:00,
2013-04-21 14:23:00,64.0,45.0,30.32,SE,135,5.8,5.8,50,0.00,CLR,,0.00,WeatherDisplay:10.37,2013-04-21 18:23:00,
2013-04-21 14:28:00,64.6,43.9,30.32,East,90,3.8,3.8,47,0.00,CLR,,0.00,WeatherDisplay:10.37,2013-04-21 18:28:00,
2013-04-21 14:33:00,65.8,45.0,30.32,ENE,68,5.8,5.8,47,0.00,CLR,,0.00,WeatherDisplay:10.37,2013-04-21 18:33:00,
2013-04-21 14:38:00,66.6,45.7,30.32,SE,135,5.8,5.8,47,0.00,CLR,,0.00,WeatherDisplay:10.37,2013-04-21 18:38:00,
2013-04-21 14:43:00,65.7,44.9,30.32,North,0,6.9,6.9,47,0.00,CLR,,0.00,WeatherDisplay:10.37,2013-04-21 18:43:00,
2013-04-21 14:48:00,66.9,46.0,30.29,East,90,6.9,6.9,47,0.00,CLR,,0.00,WeatherDisplay:10.37,2013-04-21 18:48:00,
2013-04-21 14:53:00,66.2,45.4,30.29,NE,45,5.8,5.8,47,0.00,CLR,,0.00,WeatherDisplay:10.37,2013-04-21 18:53:00,
2013-04-21 14:58:00,66.0,45.2,30.29,NE,45,8.1,8.1,47,0.00,CLR,,0.00,WeatherDisplay:10.37,2013-04-21 18:58:00,
2013-04-21 15:03:00,66.9,46.0,30.32,NE,45,3.8,3.8,47,0.00,BKN,,0.00,WeatherDisplay:10.37,2013-04-21 19:03:00,
2013-04-21 15:08:00,65.8,45.0,30.32,ENE,68,6.4,6.4,47,0.00,BKN,,0.00,WeatherDisplay:10.37,2013-04-21 19:08:00,
2013-04-21 15:13:00,65.1,44.4,30.32,NE,45,6.2,6.2,47,0.00,BKN,,0.00,WeatherDisplay:10.37,2013-04-21 19:13:00,
2013-04-21 15:18:00,64.8,44.1,30.29,East,90,8.1,8.1,47,0.00,BKN,,0.00,WeatherDisplay:10.37,2013-04-21 19:18:00,
2013-04-21 15:23:00,64.6,43.9,30.29,East,90,5.8,5.8,47,0.00,BKN,,0.00,WeatherDisplay:10.37,2013-04-21 19:23:00,
2013-04-21 15:28:00,65.7,44.9,30.29,East,90,3.5,3.5,47,0.00,BKN,,0.00,WeatherDisplay:10.37,2013-04-21 19:28:00,
2013-04-21 15:33:00,65.5,44.7,30.29,SE,135,4.6,4.6,47,0.00,BKN,,0.00,WeatherDisplay:10.37,2013-04-21 19:33:00,
2013-04-21 15:38:00,66.4,45.5,30.29,SE,135,5.8,5.8,47,0.00,BKN,,0.00,WeatherDisplay:10.37,2013-04-21 19:38:00,
2013-04-21 15:43:00,67.1,46.2,30.29,East,90,3.5,3.5,47,0.00,BKN,,0.00,WeatherDisplay:10.37,2013-04-21 19:43:00,
2013-04-21 15:48:00,66.2,45.4,30.26,East,90,4.6,4.6,47,0.00,BKN,,0.00,WeatherDisplay:10.37,2013-04-21 19:48:00,
2013-04-21 15:53:00,66.7,45.9,30.26,East,90,5.8,5.8,47,0.00,BKN,,0.00,WeatherDisplay:10.37,2013-04-21 19:53:00,
2013-04-21 15:58:00,67.3,46.4,30.26,NE,45,2.3,2.3,47,0.00,BKN,,0.00,WeatherDisplay:10.37,2013-04-21 19:58:00,
2013-04-21 16:03:00,67.1,46.2,30.26,East,90,4.6,4.6,47,0.00,BKN,,0.00,WeatherDisplay:10.37,2013-04-21 20:03:00,
2013-04-21 16:08:00,66.0,45.2,30.26,SE,135,5.8,5.8,47,0.00,BKN,,0.00,WeatherDisplay:10.37,2013-04-21 20:08:00,
2013-04-21 16:13:00,67.1,46.2,30.26,South,180,4.9,4.9,47,0.00,BKN,,0.00,WeatherDisplay:10.37,2013-04-21 20:13:00,
2013-04-21 16:18:00,67.1,46.2,30.26,East,90,3.8,3.8,47,0.00,BKN,,0.00,WeatherDisplay:10.37,2013-04-21 20:18:00,
2013-04-21 16:23:00,65.7,44.9,30.26,East,90,4.6,4.6,47,0.00,BKN,,0.00,WeatherDisplay:10.37,2013-04-21 20:23:00,
2013-04-21 16:28:00,65.5,44.7,30.26,East,90,5.6,5.6,47,0.00,BKN,,0.00,WeatherDisplay:10.37,2013-04-21 20:28:00,
2013-04-21 16:33:00,66.4,45.5,30.26,East,90,3.5,3.5,47,0.00,BKN,,0.00,WeatherDisplay:10.37,2013-04-21 20:33:00,
2013-04-21 16:38:00,67.1,46.2,30.26,North,0,4.3,4.3,47,0.00,BKN,,0.00,WeatherDisplay:10.37,2013-04-21 20:38:00,
2013-04-21 16:43:00,66.9,46.0,30.26,South,180,3.5,3.5,47,0.00,BKN,,0.00,WeatherDisplay:10.37,2013-04-21 20:43:00,
2013-04-21 16:48:00,66.9,46.0,30.26,East,90,4.9,4.9,47,0.00,BKN,,0.00,WeatherDisplay:10.37,2013-04-21 20:48:00,
2013-04-21 16:53:00,66.6,45.7,30.26,East,90,4.6,4.6,47,0.00,BKN,,0.00,WeatherDisplay:10.37,2013-04-21 20:53:00,
2013-04-21 16:58:00,66.7,45.9,30.26,NE,45,4.3,4.3,47,0.00,BKN,,0.00,WeatherDisplay:10.37,2013-04-21 20:58:00,
2013-04-21 17:03:00,65.5,44.7,30.26,East,90,4.7,4.7,47,0.00,BKN,,0.00,WeatherDisplay:10.37,2013-04-21 21:03:00,
2013-04-21 17:08:00,65.3,44.5,30.26,NE,45,3.5,3.5,47,0.00,BKN,,0.00,WeatherDisplay:10.37,2013-04-21 21:08:00,
2013-04-21 17:13:00,65.1,44.4,30.26,East,90,5.8,5.8,47,0.00,BKN,,0.00,WeatherDisplay:10.37,2013-04-21 21:13:00,
2013-04-21 17:18:00,65.1,44.4,30.26,East,90,5.8,5.8,47,0.00,BKN,,0.00,WeatherDisplay:10.37,2013-04-21 21:18:00,
2013-04-21 17:23:00,64.2,45.2,30.26,NE,45,6.9,6.9,50,0.00,BKN,,0.00,WeatherDisplay:10.37,2013-04-21 21:23:00,
2013-04-21 17:28:00,63.7,44.7,30.26,NE,45,5.8,5.8,50,0.00,BKN,,0.00,WeatherDisplay:10.37,2013-04-21 21:28:00,
2013-04-21 17:33:00,64.6,43.9,30.29,East,90,3.5,3.5,47,0.00,BKN,,0.00,WeatherDisplay:10.37,2013-04-21 21:33:00,
2013-04-21 17:38:00,65.5,44.7,30.29,East,90,3.5,3.5,47,0.00,BKN,,0.00,WeatherDisplay:10.37,2013-04-21 21:38:00,
2013-04-21 17:43:00,64.9,44.2,30.29,SE,135,4.6,4.6,47,0.00,BKN,,0.00,WeatherDisplay:10.37,2013-04-21 21:43:00,
2013-04-21 17:48:00,64.8,44.1,30.26,East,90,6.0,6.0,47,0.00,BKN,,0.00,WeatherDisplay:10.37,2013-04-21 21:48:00,
2013-04-21 17:53:00,63.7,44.7,30.26,NE,45,4.6,4.6,50,0.00,BKN,,0.00,WeatherDisplay:10.37,2013-04-21 21:53:00,
2013-04-21 17:58:00,63.9,44.9,30.26,East,90,2.3,2.9,50,0.00,BKN,,0.00,WeatherDisplay:10.37,2013-04-21 21:58:00,
2013-04-21 18:03:00,63.5,44.5,30.26,East,90,4.6,4.6,50,0.00,BKN,,0.00,WeatherDisplay:10.37,2013-04-21 22:03:00,
2013-04-21 18:08:00,63.3,44.4,30.26,East,90,5.8,5.8,50,0.00,BKN,,0.00,WeatherDisplay:10.37,2013-04-21 22:08:00,
2013-04-21 18:13:00,63.3,44.4,30.26,East,90,4.6,4.6,50,0.00,BKN,,0.00,WeatherDisplay:10.37,2013-04-21 22:13:00,
2013-04-21 18:18:00,62.6,43.7,30.23,NE,45,5.8,5.8,50,0.00,BKN,,0.00,WeatherDisplay:10.37,2013-04-21 22:18:00,
2013-04-21 18:23:00,63.1,44.2,30.23,NNE,22,3.1,3.1,50,0.00,BKN,,0.00,WeatherDisplay:10.37,2013-04-21 22:23:00,
2013-04-21 18:28:00,63.0,44.0,30.23,NE,45,3.5,3.5,50,0.00,BKN,,0.00,WeatherDisplay:10.37,2013-04-21 22:28:00,
2013-04-21 18:33:00,63.0,44.0,30.26,East,90,3.1,3.1,50,0.00,BKN,,0.00,WeatherDisplay:10.37,2013-04-21 22:33:00,
2013-04-21 18:38:00,62.4,43.5,30.26,East,90,3.5,3.5,50,0.00,BKN,,0.00,WeatherDisplay:10.37,2013-04-21 22:38:00,
2013-04-21 18:43:00,62.2,43.4,30.26,NE,45,3.5,3.5,50,0.00,BKN,,0.00,WeatherDisplay:10.37,2013-04-21 22:43:00,
2013-04-21 18:48:00,61.9,43.0,30.26,East,90,4.6,4.6,50,0.00,BKN,,0.00,WeatherDisplay:10.37,2013-04-21 22:48:00,
2013-04-21 18:53:00,61.9,43.0,30.26,NE,45,4.0,4.0,50,0.00,BKN,,0.00,WeatherDisplay:10.37,2013-04-21 22:53:00,
2013-04-21 18:58:00,61.0,42.2,30.26,ENE,68,4.6,4.6,50,0.00,BKN,,0.00,WeatherDisplay:10.37,2013-04-21 22:58:00,
2013-04-21 19:03:00,60.6,42.9,30.26,East,90,5.8,5.8,52,0.00,BKN,,0.00,WeatherDisplay:10.37,2013-04-21 23:03:00,
2013-04-21 19:08:00,60.4,42.7,30.26,East,90,3.8,3.8,52,0.00,BKN,,0.00,WeatherDisplay:10.37,2013-04-21 23:08:00,
2013-04-21 19:13:00,60.3,42.6,30.26,East,90,4.7,4.7,52,0.00,BKN,,0.00,WeatherDisplay:10.37,2013-04-21 23:13:00,
2013-04-21 19:18:00,59.7,34.7,30.26,ENE,73,3.0,0.0,39,0.00,BKN,BKN,0.00,WeatherDisplay:10.37,2013-04-21 23:18:00,
2013-04-21 19:23:00,59.2,34.2,30.26,East,90,4.6,4.6,39,0.00,BKN,,0.00,WeatherDisplay:10.37,2013-04-21 23:23:00,
2013-04-21 19:28:00,59.2,34.2,30.26,NE,45,3.5,3.5,39,0.00,BKN,,0.00,WeatherDisplay:10.37,2013-04-21 23:28:00,
2013-04-21 19:33:00,58.8,33.9,30.23,NNE,22,2.9,2.9,39,0.00,BKN,,0.00,WeatherDisplay:10.37,2013-04-21 23:33:00,
2013-04-21 19:38:00,58.5,33.6,30.23,NE,45,3.5,3.5,39,0.00,BKN,,0.00,WeatherDisplay:10.37,2013-04-21 23:38:00,
2013-04-21 19:43:00,58.1,33.2,30.23,East,90,2.3,2.3,39,0.00,BKN,,0.00,WeatherDisplay:10.37,2013-04-21 23:43:00,
2013-04-21 19:48:00,57.9,33.1,30.23,NNE,22,1.2,1.2,39,0.00,BKN,,0.00,WeatherDisplay:10.37,2013-04-21 23:48:00,
2013-04-21 19:53:00,57.6,32.8,30.23,East,90,2.3,2.3,39,0.00,BKN,,0.00,WeatherDisplay:10.37,2013-04-21 23:53:00,
2013-04-21 19:58:00,57.0,32.3,30.23,East,90,2.3,2.3,39,0.00,BKN,,0.00,WeatherDisplay:10.37,2013-04-21 23:58:00,
2013-04-21 20:03:00,56.7,32.0,30.26,NE,45,2.3,0.0,39,0.00,BKN,,0.00,WeatherDisplay:10.37,2013-04-22 00:03:00,
2013-04-21 20:08:00,56.1,31.5,30.26,East,90,1.2,1.2,39,0.00,BKN,,0.00,WeatherDisplay:10.37,2013-04-22 00:08:00,
2013-04-21 20:13:00,55.6,31.0,30.26,East,90,1.2,1.2,39,0.00,BKN,,0.00,WeatherDisplay:10.37,2013-04-22 00:13:00,
2013-04-21 20:18:00,54.9,31.6,30.26,East,90,2.3,2.3,41,0.00,BKN,,0.00,WeatherDisplay:10.37,2013-04-22 00:18:00,
2013-04-21 20:23:00,54.5,31.3,30.26,NE,45,1.2,1.4,41,0.00,BKN,,0.00,WeatherDisplay:10.37,2013-04-22 00:23:00,
2013-04-21 20:28:00,54.1,30.9,30.26,NE,45,1.2,0.0,41,0.00,BKN,,0.00,WeatherDisplay:10.37,2013-04-22 00:28:00,
2013-04-21 20:33:00,53.6,30.4,30.26,NE,45,1.2,0.0,41,0.00,BKN,,0.00,WeatherDisplay:10.37,2013-04-22 00:33:00,
2013-04-21 20:38:00,52.9,29.8,30.26,NE,45,2.2,0.0,41,0.00,BKN,,0.00,WeatherDisplay:10.37,2013-04-22 00:38:00,
2013-04-21 20:43:00,52.3,29.3,30.26,NE,45,0.0,0.0,41,0.00,BKN,,0.00,WeatherDisplay:10.37,2013-04-22 00:43:00,
2013-04-21 20:48:00,51.6,29.3,30.26,West,270,0.0,0.0,42,0.00,BKN,,0.00,WeatherDisplay:10.37,2013-04-22 00:48:00,
2013-04-21 20:53:00,51.3,28.9,30.26,WNW,292,1.2,0.0,42,0.00,BKN,,0.00,WeatherDisplay:10.37,2013-04-22 00:53:00,
2013-04-21 20:58:00,50.9,28.6,30.26,NNE,22,0.0,0.0,42,0.00,BKN,,0.00,WeatherDisplay:10.37,2013-04-22 00:58:00,
2013-04-21 21:03:00,50.2,27.9,30.26,NNE,22,0.0,0.0,42,0.00,BKN,,0.00,WeatherDisplay:10.37,2013-04-22 01:03:00,
2013-04-21 21:08:00,49.8,27.6,30.26,NNE,22,0.0,0.0,42,0.00,BKN,,0.00,WeatherDisplay:10.37,2013-04-22 01:08:00,
2013-04-21 21:13:00,49.3,27.1,30.26,NNE,22,0.0,0.0,42,0.00,BKN,,0.00,WeatherDisplay:10.37,2013-04-22 01:13:00,
2013-04-21 21:18:00,48.9,26.8,30.26,NNE,22,0.0,0.0,42,0.00,BKN,,0.00,WeatherDisplay:10.37,2013-04-22 01:18:00,
2013-04-21 21:23:00,48.6,26.5,30.26,NNE,22,0.0,0.0,42,0.00,BKN,,0.00,WeatherDisplay:10.37,2013-04-22 01:23:00,
2013-04-21 21:29:00,48.2,26.2,30.26,NNE,22,0.0,0.0,42,0.00,BKN,,0.00,WeatherDisplay:10.37,2013-04-22 01:29:00,
2013-04-21 21:33:00,44.8,6.1,30.23,NE,34,1.0,2.0,20,0.00,CLR,CLR,0.00,WeatherDisplay:10.37,2013-04-22 01:33:00,
2013-04-21 21:34:00,48.2,26.2,30.23,NE,45,0.0,0.0,42,0.00,BKN,,0.00,WeatherDisplay:10.37,2013-04-22 01:34:00,
2013-04-21 21:39:00,48.0,26.0,30.23,NE,45,0.0,0.0,42,0.00,BKN,,0.00,WeatherDisplay:10.37,2013-04-22 01:39:00,
2013-04-21 21:44:00,48.0,26.0,30.23,NE,45,0.0,0.0,42,0.00,BKN,,0.00,WeatherDisplay:10.37,2013-04-22 01:44:00,
2013-04-21 21:48:00,44.8,6.1,30.20,NNE,32,1.0,2.0,20,0.00,CLR,CLR,0.00,WeatherDisplay:10.37,2013-04-22 01:48:00,
2013-04-21 21:49:00,47.7,25.7,30.26,NE,45,0.0,0.0,42,0.00,BKN,,0.00,WeatherDisplay:10.37,2013-04-22 01:49:00,
2013-04-21 21:54:00,47.3,25.3,30.26,NE,45,0.0,0.0,42,0.00,BKN,,0.00,WeatherDisplay:10.37,2013-04-22 01:54:00,
2013-04-21 21:59:00,46.9,25.0,30.26,NE,45,0.0,0.0,42,0.00,BKN,,0.00,WeatherDisplay:10.37,2013-04-22 01:59:00,
2013-04-21 22:03:00,44.6,5.9,30.20,NE,34,2.0,3.0,20,0.00,CLR,CLR,0.00,WeatherDisplay:10.37,2013-04-22 02:03:00,
2013-04-21 22:04:00,46.6,24.7,30.26,NE,45,0.0,0.0,42,0.00,SCT,,0.00,WeatherDisplay:10.37,2013-04-22 02:04:00,
2013-04-21 22:09:00,46.6,24.7,30.26,NE,45,0.0,0.0,42,0.00,SCT,,0.00,WeatherDisplay:10.37,2013-04-22 02:09:00,
2013-04-21 22:15:00,46.2,25.5,30.26,NE,45,0.0,0.0,44,0.00,SCT,,0.00,WeatherDisplay:10.37,2013-04-22 02:15:00,
2013-04-21 22:18:00,44.2,5.6,30.20,NE,45,1.0,2.0,20,0.00,CLR,CLR,0.00,WeatherDisplay:10.37,2013-04-22 02:18:00,
2013-04-21 22:20:00,46.0,25.3,30.23,NNE,22,1.2,0.0,44,0.00,SCT,,0.00,WeatherDisplay:10.37,2013-04-22 02:20:00,
2013-04-21 22:25:00,46.0,25.3,30.23,NNW,338,0.0,0.0,44,0.00,SCT,,0.00,WeatherDisplay:10.37,2013-04-22 02:25:00,
2013-04-21 22:30:00,45.9,25.2,30.23,NNW,338,0.0,0.0,44,0.00,SCT,,0.00,WeatherDisplay:10.37,2013-04-22 02:30:00,
2013-04-21 22:33:00,43.5,5.0,30.20,NE,45,1.0,2.0,20,0.00,CLR,CLR,0.00,WeatherDisplay:10.37,2013-04-22 02:33:00,
2013-04-21 22:35:00,45.7,25.0,30.23,NNE,22,0.0,0.0,44,0.00,SCT,,0.00,WeatherDisplay:10.37,2013-04-22 02:35:00,
2013-04-21 22:40:00,45.7,25.0,30.23,NE,45,0.0,0.0,44,0.00,SCT,,0.00,WeatherDisplay:10.37,2013-04-22 02:40:00,
2013-04-21 22:45:00,45.5,24.8,30.23,NE,45,0.0,0.0,44,0.00,SCT,,0.00,WeatherDisplay:10.37,2013-04-22 02:45:00,
2013-04-21 22:48:00,43.2,4.7,30.17,NE,45,0.0,2.0,20,0.00,CLR,CLR,0.00,WeatherDisplay:10.37,2013-04-22 02:48:00,
2013-04-21 22:50:00,45.3,24.7,30.26,NE,45,0.0,0.0,44,0.00,SCT,,0.00,WeatherDisplay:10.37,2013-04-22 02:50:00,
2013-04-21 22:55:00,45.1,24.5,30.26,NE,45,0.0,0.0,44,0.00,SCT,,0.00,WeatherDisplay:10.37,2013-04-22 02:55:00,
2013-04-21 23:00:00,45.1,24.5,30.26,NE,45,0.0,0.0,44,0.00,SCT,,0.00,WeatherDisplay:10.37,2013-04-22 03:00:00,
2013-04-21 23:03:00,42.8,4.4,30.20,NE,36,1.0,2.0,20,0.00,CLR,CLR,0.00,WeatherDisplay:10.37,2013-04-22 03:03:00,
2013-04-21 23:05:00,45.3,24.7,30.26,NNE,22,0.0,0.0,44,0.00,CLR,,0.00,WeatherDisplay:10.37,2013-04-22 03:05:00,
2013-04-21 23:10:00,45.1,24.5,30.26,NNE,22,0.0,0.0,44,0.00,CLR,,0.00,WeatherDisplay:10.37,2013-04-22 03:10:00,
2013-04-21 23:18:00,42.4,5.2,30.17,NE,45,1.0,2.0,21,0.00,CLR,CLR,0.00,WeatherDisplay:10.37,2013-04-22 03:18:00,
2013-04-21 23:33:00,42.1,4.9,30.20,NE,45,1.0,2.0,21,0.00,CLR,CLR,0.00,WeatherDisplay:10.37,2013-04-22 03:33:00,
2013-04-21 23:48:00,41.9,4.7,30.20,NE,35,2.0,2.0,21,0.00,CLR,CLR,0.00,WeatherDisplay:10.37,2013-04-22 03:48:00,